Terminal Aerodrome Forecast
Issued by NWS Missoula, MT

Home | Current Version | Previous Version | Text Only | Print | Product List | Glossary On
Versions: 1 2 3 4 5 6 7 8 9 10 11 12 13 14 15 16 17
649
FTUS45 KMSO 271121
TAFMSO
TAF
KMSO 271121Z 2712/2812 VRB06KT 6SM -SHRA BR BKN060 OVC080
     FM271500 24010KT P6SM VCSH BKN080
     FM272000 29016G26KT P6SM SCT080
     FM280200 30010KT P6SM SCT070=

USA.gov is the U.S. government's official web portal to all federal, state and local government web resources and services.